createdAt,value
2018-06-12T00:01:01.951Z,10.83
2018-06-12T00:03:30.540Z,12.63
2018-06-12T00:05:59.137Z,4.57
2018-06-12T00:08:27.749Z,9.63
2018-06-12T00:10:56.301Z,8.73
2018-06-12T00:13:24.913Z,13.93
2018-06-12T00:15:53.465Z,8.00
2018-06-12T00:18:22.061Z,11.17
2018-06-12T00:20:50.608Z,8.77
2018-06-12T00:23:19.197Z,8.30
2018-06-12T00:25:47.773Z,11.27
2018-06-12T00:28:16.044Z,4.73
2018-06-12T00:30:44.658Z,11.30
2018-06-12T00:33:12.936Z,16.90
2018-06-12T00:35:41.484Z,9.13
2018-06-12T00:38:09.743Z,7.13
2018-06-12T00:40:37.962Z,6.93
2018-06-12T00:43:06.529Z,4.97
2018-06-12T00:45:34.761Z,8.17
2018-06-12T00:48:03.330Z,5.70
2018-06-12T00:50:31.663Z,4.67
2018-06-12T00:52:59.893Z,14.43
2018-06-12T00:55:28.498Z,14.47
2018-06-12T00:57:57.044Z,19.03
2018-06-12T01:00:25.653Z,4.03
2018-06-12T01:02:53.867Z,7.70
2018-06-12T01:05:22.173Z,8.63
2018-06-12T01:07:50.392Z,8.40
2018-06-12T01:10:18.630Z,10.13
2018-06-12T01:12:46.892Z,6.27
2018-06-12T01:15:15.143Z,16.50
2018-06-12T01:17:43.366Z,7.97
2018-06-12T01:20:11.830Z,8.87
2018-06-12T01:22:40.084Z,6.70
2018-06-12T01:25:08.342Z,9.40
2018-06-12T01:27:36.562Z,9.30
2018-06-12T01:30:04.832Z,9.10
2018-06-12T01:32:33.077Z,8.40
2018-06-12T01:35:01.337Z,13.70
2018-06-12T01:37:29.587Z,13.80
2018-06-12T01:39:57.821Z,6.13
2018-06-12T01:42:26.042Z,5.30
2018-06-12T01:44:54.274Z,14.70
2018-06-12T01:47:22.600Z,9.43
2018-06-12T01:49:50.824Z,16.40
2018-06-12T01:52:19.381Z,4.53
2018-06-12T01:54:47.624Z,4.87
2018-06-12T01:57:15.857Z,10.57
2018-06-12T01:59:44.133Z,6.33
2018-06-12T02:02:12.389Z,4.90
2018-06-12T02:04:40.654Z,5.47
2018-06-12T02:07:08.882Z,11.60
2018-06-12T02:09:37.158Z,10.63
2018-06-12T02:12:05.409Z,12.07
2018-06-12T02:14:33.673Z,5.63
2018-06-12T02:17:01.946Z,8.33
2018-06-12T02:19:30.176Z,8.70
2018-06-12T02:21:58.462Z,6.20
2018-06-12T02:24:26.671Z,6.40
2018-06-12T02:26:54.958Z,5.37
2018-06-12T02:29:23.225Z,12.63
2018-06-12T02:31:51.453Z,5.90
2018-06-12T02:34:19.745Z,20.20
2018-06-12T02:36:48.306Z,12.90
2018-06-12T02:39:16.519Z,15.37
2018-06-12T02:41:44.762Z,6.30
2018-06-12T02:44:12.968Z,9.23
2018-06-12T02:46:41.210Z,6.50
2018-06-12T02:49:09.786Z,9.20
2018-06-12T02:51:38.406Z,10.80
2018-06-12T02:54:06.975Z,7.63
2018-06-12T02:56:35.581Z,6.87
2018-06-12T02:59:03.840Z,4.80
2018-06-12T03:01:32.417Z,5.67
2018-06-12T03:04:00.971Z,11.53
2018-06-12T03:06:29.210Z,6.67
2018-06-12T03:08:57.422Z,7.73
2018-06-12T03:11:25.691Z,7.90
2018-06-12T03:13:54.258Z,9.87
2018-06-12T03:16:22.858Z,15.20
2018-06-12T03:18:51.074Z,9.33
2018-06-12T03:21:19.347Z,8.50
2018-06-12T03:23:47.553Z,16.80
2018-06-12T03:26:15.826Z,8.50
2018-06-12T03:28:44.047Z,10.17
2018-06-12T03:31:12.318Z,15.30
2018-06-12T03:33:40.565Z,8.90
2018-06-12T03:36:08.911Z,12.73
2018-06-12T03:38:37.146Z,18.97
2018-06-12T03:41:05.389Z,10.00
2018-06-12T03:43:33.644Z,9.13
2018-06-12T03:46:01.894Z,5.97
2018-06-12T03:48:30.482Z,5.83
2018-06-12T03:50:58.710Z,8.10
2018-06-12T03:53:27.294Z,7.83
2018-06-12T03:55:55.517Z,6.87
2018-06-12T03:58:24.076Z,9.30
2018-06-12T04:00:52.342Z,5.63
2018-06-12T04:03:20.627Z,10.00
2018-06-12T04:05:48.833Z,5.80
2018-06-12T04:08:17.116Z,11.40
2018-06-12T04:10:45.721Z,7.93
2018-06-12T04:13:14.005Z,10.90
2018-06-12T04:15:42.235Z,6.60
2018-06-12T04:18:10.490Z,7.90
2018-06-12T04:20:38.698Z,11.27
2018-06-12T04:23:06.957Z,9.10
2018-06-12T04:25:35.165Z,9.80
2018-06-12T04:28:03.431Z,7.53
2018-06-12T04:30:31.650Z,16.73
2018-06-12T04:32:59.909Z,9.13
2018-06-12T04:35:28.153Z,7.07
2018-06-12T04:37:56.404Z,6.83
2018-06-12T04:40:24.649Z,6.67
2018-06-12T04:42:52.870Z,5.93
2018-06-12T04:45:21.109Z,10.83
2018-06-12T04:47:49.345Z,5.90
2018-06-12T04:50:17.593Z,9.83
2018-06-12T04:52:45.891Z,6.60
2018-06-12T04:55:14.129Z,7.40
2018-06-12T04:57:42.381Z,8.47
2018-06-12T05:00:10.621Z,16.90
2018-06-12T05:02:38.855Z,8.33
2018-06-12T05:05:07.121Z,10.43
2018-06-12T05:07:35.328Z,10.60
2018-06-12T05:10:03.915Z,7.00
2018-06-12T05:12:32.176Z,9.60
2018-06-12T05:15:00.697Z,11.53
2018-06-12T05:17:28.924Z,5.83
2018-06-12T05:19:57.180Z,8.47
2018-06-12T05:22:25.405Z,8.37
2018-06-12T05:24:53.641Z,9.70
2018-06-12T05:27:21.876Z,12.13
2018-06-12T05:29:50.158Z,16.37
2018-06-12T05:32:18.410Z,15.57
2018-06-12T05:34:46.690Z,38.53
2018-06-12T05:37:14.910Z,25.70
2018-06-12T05:39:43.192Z,16.93
2018-06-12T05:42:11.528Z,17.60
2018-06-12T05:44:39.789Z,21.73
2018-06-12T05:47:08.049Z,22.13
2018-06-12T05:49:36.286Z,15.57
2018-06-12T05:52:04.507Z,14.80
2018-06-12T05:54:32.718Z,18.43
2018-06-12T05:57:01.045Z,14.07
2018-06-12T05:59:29.281Z,12.30
2018-06-12T06:01:57.557Z,12.47
2018-06-12T06:04:25.766Z,8.30
2018-06-12T06:06:54.032Z,10.03
2018-06-12T06:09:22.250Z,8.33
2018-06-12T06:11:50.514Z,9.83
2018-06-12T06:14:18.745Z,13.73
2018-06-12T06:16:47.017Z,29.07
2018-06-12T06:19:15.226Z,14.00
2018-06-12T06:21:43.467Z,10.83
2018-06-12T06:24:11.709Z,9.10
2018-06-12T06:26:39.948Z,13.03
2018-06-12T06:29:08.250Z,11.30
2018-06-12T06:31:37.918Z,9.83
2018-06-12T06:34:06.195Z,7.23
2018-06-12T06:36:34.445Z,7.43
2018-06-12T06:39:02.706Z,6.47
2018-06-12T06:41:30.938Z,6.70
2018-06-12T06:43:59.160Z,12.97
2018-06-12T06:46:27.382Z,8.37
2018-06-12T06:48:55.753Z,13.23
2018-06-12T06:51:24.017Z,11.70
2018-06-12T06:53:52.278Z,6.43
2018-06-12T06:56:20.537Z,9.07
2018-06-12T06:58:48.762Z,12.33
2018-06-12T07:01:16.983Z,9.90
2018-06-12T07:03:45.237Z,7.80
2018-06-12T07:06:13.485Z,14.63
2018-06-12T07:08:41.734Z,9.27
2018-06-12T07:11:09.959Z,5.87
2018-06-12T07:13:38.226Z,8.90
2018-06-12T07:16:06.534Z,4.87
2018-06-12T07:18:34.769Z,8.33
2018-06-12T07:21:05.171Z,5.63
2018-06-12T07:23:33.514Z,7.97
2018-06-12T07:26:01.823Z,6.07
2018-06-12T07:28:30.094Z,8.73
2018-06-12T07:30:58.329Z,7.87
2018-06-12T07:33:26.570Z,6.77
2018-06-12T07:35:54.819Z,5.50
2018-06-12T07:38:23.091Z,7.90
2018-06-12T07:40:51.317Z,4.53
2018-06-12T07:43:19.564Z,6.60
2018-06-12T07:45:47.782Z,8.83
2018-06-12T07:48:16.066Z,4.50
2018-06-12T07:50:44.275Z,7.47
2018-06-12T07:53:12.561Z,6.90
2018-06-12T07:55:40.830Z,5.67
2018-06-12T07:58:09.403Z,7.60
2018-06-12T08:00:37.622Z,9.60
2018-06-12T08:03:05.877Z,7.37
2018-06-12T08:05:34.125Z,6.80
2018-06-12T08:08:02.378Z,6.07
2018-06-12T08:10:30.621Z,10.57
2018-06-12T08:12:59.003Z,4.33
2018-06-12T08:15:27.144Z,3.73
2018-06-12T08:17:55.390Z,7.83
2018-06-12T08:20:23.629Z,5.60
2018-06-12T08:22:51.894Z,5.57
2018-06-12T08:25:20.122Z,6.97
2018-06-12T08:27:48.460Z,9.57
2018-06-12T08:30:16.720Z,6.07
2018-06-12T08:32:44.950Z,12.70
2018-06-12T08:35:13.214Z,12.60
2018-06-12T08:37:41.473Z,7.40
2018-06-12T08:40:09.710Z,5.77
2018-06-12T08:42:37.949Z,8.03
2018-06-12T08:45:06.219Z,10.53
2018-06-12T08:47:34.435Z,8.80
2018-06-12T08:50:02.697Z,7.77
2018-06-12T08:52:30.908Z,7.90
2018-06-12T08:54:59.196Z,8.23
2018-06-12T08:57:27.460Z,11.40
2018-06-12T08:59:55.761Z,13.33
2018-06-12T09:02:24.015Z,8.53
2018-06-12T09:04:52.332Z,9.33
2018-06-12T09:07:20.589Z,25.40
2018-06-12T09:09:48.845Z,10.60
2018-06-12T09:12:17.082Z,7.50
2018-06-12T09:14:45.441Z,7.87
2018-06-12T09:17:13.710Z,11.37
2018-06-12T09:19:42.025Z,17.50
2018-06-12T09:22:10.270Z,10.90
2018-06-12T09:24:38.567Z,5.47
2018-06-12T09:27:06.819Z,12.47
2018-06-12T09:29:35.167Z,8.37
2018-06-12T09:32:03.576Z,12.23
2018-06-12T09:34:31.836Z,6.60
2018-06-12T09:37:00.101Z,10.80
2018-06-12T09:39:28.394Z,9.07
2018-06-12T09:41:56.726Z,16.90
2018-06-12T09:44:25.082Z,13.70
2018-06-12T09:46:53.355Z,16.30
2018-06-12T09:49:21.630Z,16.83
2018-06-12T09:51:49.881Z,15.53
2018-06-12T09:54:18.298Z,16.50
2018-06-12T09:56:46.574Z,16.67
2018-06-12T09:59:14.841Z,24.30
2018-06-12T10:01:43.112Z,19.97
2018-06-12T10:04:11.388Z,46.17
2018-06-12T10:06:39.673Z,36.80
2018-06-12T10:09:07.972Z,38.57
2018-06-12T10:11:36.222Z,32.13
2018-06-12T10:14:04.466Z,31.30
2018-06-12T10:16:32.771Z,29.70
2018-06-12T10:19:00.999Z,32.50
2018-06-12T10:21:29.306Z,26.43
2018-06-12T10:23:57.569Z,29.10
2018-06-12T10:26:25.854Z,22.00
2018-06-12T10:28:55.308Z,29.50
2018-06-12T10:31:23.592Z,27.80
2018-06-12T10:33:53.474Z,35.53
2018-06-12T10:36:21.833Z,30.60
2018-06-12T10:38:50.113Z,23.97
2018-06-12T10:41:18.388Z,37.37
2018-06-12T10:43:46.694Z,32.80
2018-06-12T10:46:14.980Z,32.03
2018-06-12T10:48:43.299Z,33.27
2018-06-12T10:51:11.594Z,31.13
2018-06-12T10:53:39.877Z,32.73
2018-06-12T10:56:08.120Z,30.07
2018-06-12T10:58:36.390Z,27.83
2018-06-12T11:01:04.712Z,26.90
2018-06-12T11:03:32.957Z,21.47
2018-06-12T11:06:01.241Z,23.00
2018-06-12T11:08:29.537Z,21.70
2018-06-12T11:10:57.825Z,26.03
2018-06-12T11:13:26.118Z,25.53
2018-06-12T11:15:54.381Z,25.60
2018-06-12T11:18:22.617Z,29.47
2018-06-12T11:20:50.924Z,29.73
2018-06-12T11:23:21.015Z,28.37
2018-06-12T11:25:50.205Z,24.07
2018-06-12T11:28:20.129Z,27.07
2018-06-12T11:30:48.468Z,27.87
2018-06-12T11:33:16.768Z,26.30
2018-06-12T11:35:45.033Z,25.10
2018-06-12T11:38:13.347Z,40.43
2018-06-12T11:40:44.484Z,29.43
2018-06-12T11:43:12.887Z,30.73
2018-06-12T11:45:41.173Z,28.17
2018-06-12T11:48:09.486Z,29.93
2018-06-12T11:50:37.759Z,25.70
2018-06-12T11:53:06.029Z,19.30
2018-06-12T11:55:34.246Z,16.27
2018-06-12T11:58:02.657Z,12.83
2018-06-12T12:00:30.897Z,13.63
2018-06-12T12:02:59.214Z,9.40
2018-06-12T12:05:27.448Z,9.80
2018-06-12T12:07:55.714Z,8.70
2018-06-12T12:10:23.967Z,9.23
2018-06-12T12:12:52.246Z,16.00
2018-06-12T12:15:20.469Z,7.70
2018-06-12T12:17:48.726Z,10.60
2018-06-12T12:20:16.952Z,16.37
2018-06-12T12:22:45.312Z,13.47
2018-06-12T12:25:13.691Z,12.60
2018-06-12T12:27:41.983Z,13.33
2018-06-12T12:30:10.246Z,11.67
2018-06-12T12:32:38.507Z,6.87
2018-06-12T12:35:06.891Z,9.30
2018-06-12T12:37:35.115Z,5.93
2018-06-12T12:40:03.393Z,4.13
2018-06-12T12:42:31.623Z,2.70
2018-06-12T12:44:59.874Z,9.93
2018-06-12T12:47:28.093Z,7.33
2018-06-12T12:49:56.339Z,4.80
2018-06-12T12:52:24.553Z,8.67
2018-06-12T12:54:52.808Z,3.83
2018-06-12T12:57:21.049Z,5.10
2018-06-12T12:59:49.559Z,6.33
2018-06-12T13:02:18.131Z,4.63
2018-06-12T13:04:46.767Z,4.20
2018-06-12T13:07:15.012Z,4.20
2018-06-12T13:09:43.273Z,3.90
2018-06-12T13:12:11.504Z,5.10
2018-06-12T13:14:39.782Z,7.03
2018-06-12T13:17:07.989Z,3.97
2018-06-12T13:19:36.250Z,4.90
2018-06-12T13:22:04.475Z,3.47
2018-06-12T13:24:32.721Z,4.30
2018-06-12T13:27:00.951Z,5.57
2018-06-12T13:29:29.182Z,5.13
2018-06-12T13:31:57.415Z,5.07
2018-06-12T13:34:26.023Z,3.80
2018-06-12T13:36:54.820Z,8.03
2018-06-12T13:39:23.101Z,6.60
2018-06-12T13:41:51.659Z,9.07
2018-06-12T13:44:20.373Z,10.40
2018-06-12T13:46:48.956Z,6.20
2018-06-12T13:49:17.522Z,10.77
2018-06-12T13:51:46.093Z,8.13
2018-06-12T13:54:14.654Z,8.87
2018-06-12T13:56:42.938Z,9.00
2018-06-12T13:59:11.163Z,8.80
2018-06-12T14:01:39.756Z,7.30
2018-06-12T14:04:08.339Z,6.20
2018-06-12T14:06:36.943Z,10.20
2018-06-12T14:09:07.631Z,6.10
2018-06-12T14:11:36.219Z,8.60
2018-06-12T14:14:04.863Z,9.10
2018-06-12T14:16:33.454Z,8.67
2018-06-12T14:19:02.051Z,15.27
2018-06-12T14:21:30.609Z,9.07
2018-06-12T14:23:59.158Z,6.50
2018-06-12T14:26:27.790Z,13.77
2018-06-12T14:28:56.025Z,7.57
2018-06-12T14:31:24.811Z,11.90
2018-06-12T14:33:53.485Z,6.50
2018-06-12T14:36:22.102Z,8.33
2018-06-12T14:38:50.686Z,11.27
2018-06-12T14:41:19.294Z,8.03
2018-06-12T14:43:47.893Z,7.20
2018-06-12T14:46:16.531Z,11.00
2018-06-12T14:48:45.092Z,8.07
2018-06-12T14:51:13.695Z,6.33
2018-06-12T14:53:42.494Z,7.37
2018-06-12T14:56:11.102Z,6.77
2018-06-12T14:58:39.694Z,8.20
2018-06-12T15:01:07.945Z,6.27
2018-06-12T15:03:36.181Z,10.33
2018-06-12T15:06:04.770Z,10.30
2018-06-12T15:08:33.345Z,7.47
2018-06-12T15:11:01.970Z,6.73
2018-06-12T15:13:30.268Z,9.23
2018-06-12T15:15:58.887Z,10.30
2018-06-12T15:18:27.523Z,6.60
2018-06-12T15:20:56.101Z,8.23
2018-06-12T15:23:24.352Z,8.07
2018-06-12T15:25:52.995Z,14.63
2018-06-12T15:28:21.622Z,7.50
2018-06-12T15:30:50.215Z,8.00
2018-06-12T15:33:18.918Z,7.40
2018-06-12T15:35:47.448Z,10.97
2018-06-12T15:38:16.035Z,8.53
2018-06-12T15:40:44.622Z,14.83
2018-06-12T15:43:13.291Z,18.23
2018-06-12T15:45:41.859Z,22.13
2018-06-12T15:48:10.467Z,20.17
2018-06-12T15:50:39.043Z,21.70
2018-06-12T15:53:07.672Z,24.33
2018-06-12T15:55:36.255Z,21.27
2018-06-12T15:58:04.538Z,19.50
2018-06-12T16:00:32.772Z,15.77
2018-06-12T16:03:01.386Z,17.83
2018-06-12T16:05:30.852Z,14.00
2018-06-12T16:07:59.479Z,15.67
2018-06-12T16:10:28.110Z,17.00
2018-06-12T16:12:56.748Z,15.13
2018-06-12T16:15:24.962Z,16.63
2018-06-12T16:17:53.603Z,16.97
2018-06-12T16:20:22.166Z,17.23
2018-06-12T16:22:50.769Z,18.53
2018-06-12T16:25:18.993Z,17.57
2018-06-12T16:27:47.587Z,17.00
2018-06-12T16:30:16.151Z,18.97
2018-06-12T16:32:44.797Z,16.90
2018-06-12T16:35:13.383Z,17.63
2018-06-12T16:37:41.671Z,16.00
2018-06-12T16:40:10.252Z,19.27
2018-06-12T16:42:38.823Z,22.60
2018-06-12T16:45:07.487Z,19.07
2018-06-12T16:47:36.084Z,19.37
2018-06-12T16:50:04.436Z,21.63
2018-06-12T16:52:32.998Z,19.47
2018-06-12T16:55:01.582Z,18.67
2018-06-12T16:57:30.172Z,21.30
2018-06-12T16:59:58.798Z,27.07
2018-06-12T17:02:27.395Z,21.07
2018-06-12T17:04:56.006Z,22.70
2018-06-12T17:07:24.681Z,23.73
2018-06-12T17:09:53.508Z,28.07
2018-06-12T17:12:22.086Z,22.87
2018-06-12T17:14:50.739Z,29.53
2018-06-12T17:17:19.332Z,28.53
2018-06-12T17:19:48.079Z,24.40
2018-06-12T17:22:16.679Z,28.07
2018-06-12T17:24:45.262Z,25.30
2018-06-12T17:27:13.843Z,27.67
2018-06-12T17:29:42.438Z,24.80
2018-06-12T17:32:11.030Z,31.20
2018-06-12T17:34:39.631Z,30.20
2018-06-12T17:37:08.198Z,30.83
2018-06-12T17:39:36.791Z,36.07
2018-06-12T17:42:05.124Z,36.77
2018-06-12T17:44:33.376Z,37.37
2018-06-12T17:47:01.954Z,41.13
2018-06-12T17:49:30.231Z,35.70
2018-06-12T17:51:58.466Z,36.50
2018-06-12T17:54:27.058Z,38.93
2018-06-12T17:56:55.296Z,30.97
2018-06-12T17:59:23.862Z,31.43
2018-06-12T18:01:52.458Z,34.73
2018-06-12T18:04:20.680Z,33.20
2018-06-12T18:06:51.960Z,36.90
2018-06-12T18:09:20.445Z,31.13
2018-06-12T18:11:50.933Z,33.13
2018-06-12T18:14:19.389Z,35.57
2018-06-12T18:16:47.640Z,27.63
2018-06-12T18:19:15.929Z,31.23
2018-06-12T18:21:44.220Z,31.83
2018-06-12T18:24:12.471Z,27.97
2018-06-12T18:26:41.143Z,27.30
2018-06-12T18:29:09.744Z,26.20
2018-06-12T18:31:38.355Z,28.13
2018-06-12T18:34:06.618Z,25.47
2018-06-12T18:36:35.200Z,23.57
2018-06-12T18:39:04.077Z,30.83
2018-06-12T18:41:32.650Z,29.00
2018-06-12T18:44:01.212Z,25.53
2018-06-12T18:46:29.468Z,24.47
2018-06-12T18:48:58.032Z,23.70
2018-06-12T18:51:26.625Z,24.03
2018-06-12T18:53:55.202Z,26.40
2018-06-12T18:56:24.709Z,30.40
2018-06-12T18:58:53.670Z,21.93
2018-06-12T19:01:25.307Z,23.13
2018-06-12T19:03:55.544Z,20.20
2018-06-12T19:06:25.855Z,26.73
2018-06-12T19:08:56.713Z,22.43
2018-06-12T19:11:27.341Z,20.87
2018-06-12T19:13:56.948Z,26.87
2018-06-12T19:16:26.354Z,22.10
2018-06-12T19:18:55.391Z,20.43
2018-06-12T19:21:25.629Z,19.63
2018-06-12T19:23:53.918Z,23.10
2018-06-12T19:26:22.965Z,19.50
2018-06-12T19:28:52.085Z,28.20
2018-06-12T19:31:22.614Z,26.00
2018-06-12T19:33:53.385Z,16.63
2018-06-12T19:36:21.733Z,14.50
2018-06-12T19:38:50.954Z,18.80
2018-06-12T19:41:19.854Z,18.47
2018-06-12T19:43:48.081Z,17.93
2018-06-12T19:46:16.677Z,18.23
2018-06-12T19:48:44.936Z,17.40
2018-06-12T19:51:13.181Z,25.50
2018-06-12T19:53:41.410Z,18.80
2018-06-12T19:56:09.662Z,16.17
2018-06-12T19:58:38.271Z,15.27
2018-06-12T20:01:06.589Z,13.90
2018-06-12T20:03:35.181Z,15.70
2018-06-12T20:06:03.841Z,16.10
2018-06-12T20:08:32.446Z,14.83
2018-06-12T20:11:00.695Z,11.73
2018-06-12T20:13:28.970Z,12.70
2018-06-12T20:15:57.646Z,12.50
2018-06-12T20:18:26.258Z,23.27
2018-06-12T20:20:54.491Z,14.53
2018-06-12T20:23:23.090Z,19.70
2018-06-12T20:25:51.663Z,19.27
2018-06-12T20:28:20.239Z,15.30
2018-06-12T20:30:48.473Z,18.10
2018-06-12T20:33:16.753Z,16.30
2018-06-12T20:35:44.996Z,15.97
2018-06-12T20:38:13.583Z,11.83
2018-06-12T20:40:42.164Z,12.37
2018-06-12T20:43:10.773Z,23.00
2018-06-12T20:45:39.017Z,21.30
2018-06-12T20:48:07.636Z,20.03
2018-06-12T20:50:35.894Z,18.93
2018-06-12T20:53:04.156Z,25.60
2018-06-12T20:55:32.826Z,15.80
2018-06-12T20:58:01.428Z,15.70
2018-06-12T21:00:29.990Z,14.83
2018-06-12T21:02:58.565Z,12.87
2018-06-12T21:05:27.150Z,12.40
2018-06-12T21:07:55.457Z,15.83
2018-06-12T21:10:24.032Z,21.40
2018-06-12T21:12:52.628Z,15.70
2018-06-12T21:15:20.914Z,18.57
2018-06-12T21:17:49.198Z,22.87
2018-06-12T21:20:17.770Z,23.60
2018-06-12T21:22:46.011Z,23.37
2018-06-12T21:25:14.631Z,16.73
2018-06-12T21:27:43.283Z,14.27
2018-06-12T21:30:11.935Z,19.50
2018-06-12T21:32:40.193Z,16.50
2018-06-12T21:35:08.425Z,14.17
2018-06-12T21:37:36.791Z,15.90
2018-06-12T21:40:05.116Z,17.00
2018-06-12T21:42:33.334Z,15.20
2018-06-12T21:45:01.916Z,20.87
2018-06-12T21:47:30.516Z,14.97
2018-06-12T21:49:59.087Z,17.10
2018-06-12T21:52:27.667Z,16.83
2018-06-12T21:54:55.913Z,13.17
2018-06-12T21:57:24.471Z,20.63
2018-06-12T21:59:52.720Z,18.67
2018-06-12T22:02:21.277Z,13.33
2018-06-12T22:04:49.656Z,12.23
2018-06-12T22:07:17.832Z,17.57
2018-06-12T22:09:46.418Z,13.80
2018-06-12T22:12:14.984Z,12.60
2018-06-12T22:14:43.638Z,11.70
2018-06-12T22:17:12.301Z,13.90
2018-06-12T22:19:40.937Z,17.70
2018-06-12T22:22:09.543Z,12.67
2018-06-12T22:24:38.121Z,11.70
2018-06-12T22:27:06.709Z,13.90
2018-06-12T22:29:35.301Z,11.10
2018-06-12T22:32:03.988Z,16.77
2018-06-12T22:34:32.596Z,13.77
2018-06-12T22:37:01.159Z,14.43
2018-06-12T22:39:29.739Z,19.13
2018-06-12T22:41:58.282Z,12.57
2018-06-12T22:44:26.529Z,14.77
2018-06-12T22:46:55.094Z,20.67
2018-06-12T22:49:23.705Z,19.00
2018-06-12T22:51:52.251Z,18.57
2018-06-12T22:54:20.835Z,18.23
2018-06-12T22:56:49.497Z,13.00
2018-06-12T22:59:18.049Z,14.47
2018-06-12T23:01:46.624Z,14.77
2018-06-12T23:04:15.196Z,15.90
2018-06-12T23:06:43.857Z,13.63
2018-06-12T23:09:12.438Z,21.20
2018-06-12T23:11:42.739Z,16.47
2018-06-12T23:14:11.329Z,14.10
2018-06-12T23:16:39.924Z,16.23
2018-06-12T23:19:08.547Z,16.47
2018-06-12T23:21:48.363Z,14.87
2018-06-12T23:24:16.943Z,16.40
2018-06-12T23:26:45.574Z,16.00
2018-06-12T23:29:13.783Z,16.53
2018-06-12T23:31:42.366Z,18.23
2018-06-12T23:34:10.929Z,18.63
2018-06-12T23:36:39.511Z,19.30
2018-06-12T23:39:08.855Z,14.10
2018-06-12T23:41:37.438Z,14.23
2018-06-12T23:44:06.033Z,10.33
2018-06-12T23:46:34.630Z,13.33
2018-06-12T23:49:03.230Z,19.13
2018-06-12T23:51:31.834Z,13.03
2018-06-12T23:54:00.387Z,9.93
2018-06-12T23:56:28.970Z,13.57
2018-06-12T23:58:57.606Z,17.60
